sensor_id;sensor_type;location;lat;lon;timestamp;pressure;altitude;pressure_sealevel;temperature;humidity
47670;BME280;33408;52.062;11.722;2022-09-09T00:01:37;100609.50;;;15.16;100.00
47670;BME280;33408;52.062;11.722;2022-09-09T00:04:13;100609.75;;;15.09;100.00
47670;BME280;33408;52.062;11.722;2022-09-09T00:06:44;100613.31;;;15.07;100.00
47670;BME280;33408;52.062;11.722;2022-09-09T00:09:16;100611.03;;;14.99;100.00
47670;BME280;33408;52.062;11.722;2022-09-09T00:11:46;100606.75;;;14.97;100.00
47670;BME280;33408;52.062;11.722;2022-09-09T00:14:20;100603.91;;;15.03;100.00
47670;BME280;33408;52.062;11.722;2022-09-09T00:16:54;100606.81;;;14.95;100.00
47670;BME280;33408;52.062;11.722;2022-09-09T00:19:24;100600.75;;;14.94;100.00
47670;BME280;33408;52.062;11.722;2022-09-09T00:22:07;100606.09;;;14.91;100.00
47670;BME280;33408;52.062;11.722;2022-09-09T00:24:43;100607.81;;;14.92;100.00
47670;BME280;33408;52.062;11.722;2022-09-09T00:27:16;100601.72;;;14.92;100.00
47670;BME280;33408;52.062;11.722;2022-09-09T00:29:52;100595.66;;;14.91;100.00
47670;BME280;33408;52.062;11.722;2022-09-09T00:32:20;100590.56;;;14.88;100.00
47670;BME280;33408;52.062;11.722;2022-09-09T00:34:49;100595.66;;;14.91;100.00
47670;BME280;33408;52.062;11.722;2022-09-09T00:37:18;100591.50;;;14.86;100.00
47670;BME280;33408;52.062;11.722;2022-09-09T00:39:47;100592.78;;;14.75;100.00
47670;BME280;33408;52.062;11.722;2022-09-09T00:42:20;100590.50;;;14.66;100.00
47670;BME280;33408;52.062;11.722;2022-09-09T00:44:53;100589.78;;;14.63;100.00
47670;BME280;33408;52.062;11.722;2022-09-09T00:47:37;100582.75;;;14.65;100.00
47670;BME280;33408;52.062;11.722;2022-09-09T00:50:21;100584.47;;;14.66;100.00
47670;BME280;33408;52.062;11.722;2022-09-09T00:53:02;100582.84;;;14.62;100.00
47670;BME280;33408;52.062;11.722;2022-09-09T00:55:40;100591.81;;;14.54;100.00
47670;BME280;33408;52.062;11.722;2022-09-09T00:58:09;100589.41;;;14.48;100.00
47670;BME280;33408;52.062;11.722;2022-09-09T01:00:42;100584.44;;;14.42;100.00
47670;BME280;33408;52.062;11.722;2022-09-09T01:03:20;100592.53;;;14.34;100.00
47670;BME280;33408;52.062;11.722;2022-09-09T01:05:55;100596.72;;;14.38;100.00
47670;BME280;33408;52.062;11.722;2022-09-09T01:08:39;100596.09;;;14.32;100.00
47670;BME280;33408;52.062;11.722;2022-09-09T01:11:16;100604.72;;;14.34;100.00
47670;BME280;33408;52.062;11.722;2022-09-09T01:13:49;100603.78;;;14.36;100.00
47670;BME280;33408;52.062;11.722;2022-09-09T01:16:19;100602.78;;;14.39;100.00
47670;BME280;33408;52.062;11.722;2022-09-09T01:18:48;100600.28;;;14.36;100.00
47670;BME280;33408;52.062;11.722;2022-09-09T01:21:22;100601.84;;;14.41;100.00
47670;BME280;33408;52.062;11.722;2022-09-09T01:24:08;100601.94;;;14.38;100.00
47670;BME280;33408;52.062;11.722;2022-09-09T01:26:42;100602.72;;;14.40;100.00
47670;BME280;33408;52.062;11.722;2022-09-09T01:29:11;100599.13;;;14.45;100.00
47670;BME280;33408;52.062;11.722;2022-09-09T01:31:39;100601.72;;;14.45;100.00
47670;BME280;33408;52.062;11.722;2022-09-09T01:34:10;100599.78;;;14.50;100.00
47670;BME280;33408;52.062;11.722;2022-09-09T01:36:40;100597.91;;;14.53;100.00
47670;BME280;33408;52.062;11.722;2022-09-09T01:39:09;100607.69;;;14.48;100.00
47670;BME280;33408;52.062;11.722;2022-09-09T01:41:36;100601.00;;;14.41;100.00
47670;BME280;33408;52.062;11.722;2022-09-09T01:44:04;100612.66;;;14.31;100.00
47670;BME280;33408;52.062;11.722;2022-09-09T01:46:32;100609.03;;;14.35;100.00
47670;BME280;33408;52.062;11.722;2022-09-09T01:49:00;100612.66;;;14.31;100.00
47670;BME280;33408;52.062;11.722;2022-09-09T01:51:28;100611.03;;;14.28;100.00
47670;BME280;33408;52.062;11.722;2022-09-09T01:53:55;100604.78;;;14.32;100.00
47670;BME280;33408;52.062;11.722;2022-09-09T01:56:29;100614.53;;;14.27;100.00
47670;BME280;33408;52.062;11.722;2022-09-09T01:59:14;100612.53;;;14.34;100.00
47670;BME280;33408;52.062;11.722;2022-09-09T02:01:52;100610.97;;;14.30;100.00
47670;BME280;33408;52.062;11.722;2022-09-09T02:04:31;100612.69;;;14.29;100.00
47670;BME280;33408;52.062;11.722;2022-09-09T02:07:05;100608.22;;;14.33;100.00
47670;BME280;33408;52.062;11.722;2022-09-09T02:09:36;100605.50;;;14.36;100.00
47670;BME280;33408;52.062;11.722;2022-09-09T02:12:08;100596.09;;;14.32;100.00
47670;BME280;33408;52.062;11.722;2022-09-09T02:14:41;100601.38;;;14.30;100.00
47670;BME280;33408;52.062;11.722;2022-09-09T02:17:09;100602.31;;;14.28;100.00
47670;BME280;33408;52.062;11.722;2022-09-09T02:19:39;100600.59;;;14.28;100.00
47670;BME280;33408;52.062;11.722;2022-09-09T02:22:09;100605.91;;;14.25;100.00
47670;BME280;33408;52.062;11.722;2022-09-09T02:24:38;100597.47;;;14.18;100.00
47670;BME280;33408;52.062;11.722;2022-09-09T02:27:06;100601.91;;;14.15;100.00
47670;BME280;33408;52.062;11.722;2022-09-09T02:29:39;100599.50;;;14.09;100.00
47670;BME280;33408;52.062;11.722;2022-09-09T02:32:08;100600.19;;;14.15;100.00
47670;BME280;33408;52.062;11.722;2022-09-09T02:34:40;100590.47;;;14.19;100.00
47670;BME280;33408;52.062;11.722;2022-09-09T02:37:09;100596.75;;;14.13;100.00
47670;BME280;33408;52.062;11.722;2022-09-09T02:39:37;100600.22;;;14.14;100.00
47670;BME280;33408;52.062;11.722;2022-09-09T02:42:04;100597.63;;;14.14;100.00
47670;BME280;33408;52.062;11.722;2022-09-09T02:44:32;100587.88;;;14.19;100.00
47670;BME280;33408;52.062;11.722;2022-09-09T02:47:18;100594.19;;;14.12;100.00
47670;BME280;33408;52.062;11.722;2022-09-09T02:49:54;100592.72;;;14.04;100.00
47670;BME280;33408;52.062;11.722;2022-09-09T02:52:29;100587.16;;;14.15;100.00
47670;BME280;33408;52.062;11.722;2022-09-09T02:55:06;100588.88;;;14.15;100.00
47670;BME280;33408;52.062;11.722;2022-09-09T02:57:36;100590.75;;;14.11;100.00
47670;BME280;33408;52.062;11.722;2022-09-09T03:00:04;100589.84;;;14.12;100.00
47670;BME280;33408;52.062;11.722;2022-09-09T03:02:32;100588.94;;;14.13;100.00
47670;BME280;33408;52.062;11.722;2022-09-09T03:04:59;100588.97;;;14.12;100.00
47670;BME280;33408;52.062;11.722;2022-09-09T03:07:25;100589.84;;;14.12;100.00
47670;BME280;33408;52.062;11.722;2022-09-09T03:09:52;100592.94;;;13.98;100.00
47670;BME280;33408;52.062;11.722;2022-09-09T03:12:20;100591.34;;;13.94;100.00
47670;BME280;33408;52.062;11.722;2022-09-09T03:14:46;100595.81;;;13.91;100.00
47670;BME280;33408;52.062;11.722;2022-09-09T03:17:13;100586.50;;;13.83;100.00
47670;BME280;33408;52.062;11.722;2022-09-09T03:19:41;100600.38;;;13.84;100.00
47670;BME280;33408;52.062;11.722;2022-09-09T03:22:09;100593.16;;;13.92;100.00
47670;BME280;33408;52.062;11.722;2022-09-09T03:24:36;100599.22;;;13.93;100.00
47670;BME280;33408;52.062;11.722;2022-09-09T03:27:02;100593.09;;;13.94;100.00
47670;BME280;33408;52.062;11.722;2022-09-09T03:29:29;100600.91;;;13.94;100.00
47670;BME280;33408;52.062;11.722;2022-09-09T03:31:55;100596.13;;;13.81;100.00
47670;BME280;33408;52.062;11.722;2022-09-09T03:34:22;100598.34;;;13.92;100.00
47670;BME280;33408;52.062;11.722;2022-09-09T03:36:50;100602.03;;;13.86;100.00
47670;BME280;33408;52.062;11.722;2022-09-09T03:39:17;100601.59;;;13.99;100.00
47670;BME280;33408;52.062;11.722;2022-09-09T03:41:43;100591.94;;;14.02;100.00
47670;BME280;33408;52.062;11.722;2022-09-09T03:44:10;100592.03;;;13.99;100.00
47670;BME280;33408;52.062;11.722;2022-09-09T03:46:37;100594.50;;;14.04;100.00
47670;BME280;33408;52.062;11.722;2022-09-09T03:49:03;100594.44;;;14.06;100.00
47670;BME280;33408;52.062;11.722;2022-09-09T03:51:30;100594.69;;;13.98;100.00
47670;BME280;33408;52.062;11.722;2022-09-09T03:53:58;100599.00;;;13.99;100.00
47670;BME280;33408;52.062;11.722;2022-09-09T03:56:25;100602.69;;;13.93;100.00
47670;BME280;33408;52.062;11.722;2022-09-09T03:58:51;100603.66;;;13.89;100.00
47670;BME280;33408;52.062;11.722;2022-09-09T04:01:18;100604.59;;;13.88;100.00
47670;BME280;33408;52.062;11.722;2022-09-09T04:03:45;100606.56;;;13.81;100.00
47670;BME280;33408;52.062;11.722;2022-09-09T04:06:12;100594.28;;;13.85;100.00
47670;BME280;33408;52.062;11.722;2022-09-09T04:08:40;100589.16;;;13.82;100.00
47670;BME280;33408;52.062;11.722;2022-09-09T04:11:08;100591.72;;;13.83;100.00
47670;BME280;33408;52.062;11.722;2022-09-09T04:13:36;100593.34;;;13.86;100.00
47670;BME280;33408;52.062;11.722;2022-09-09T04:16:04;100602.09;;;13.85;100.00
47670;BME280;33408;52.062;11.722;2022-09-09T04:18:32;100602.03;;;13.86;100.00
47670;BME280;33408;52.062;11.722;2022-09-09T04:20:59;100603.78;;;13.86;100.00
47670;BME280;33408;52.062;11.722;2022-09-09T04:23:27;100602.00;;;13.88;100.00
47670;BME280;33408;52.062;11.722;2022-09-09T04:25:55;100601.22;;;13.84;100.00
47670;BME280;33408;52.062;11.722;2022-09-09T04:28:26;100611.63;;;13.84;100.00
47670;BME280;33408;52.062;11.722;2022-09-09T04:30:53;100611.06;;;13.76;100.00
47670;BME280;33408;52.062;11.722;2022-09-09T04:33:20;100603.56;;;13.67;100.00
47670;BME280;33408;52.062;11.722;2022-09-09T04:35:48;100609.13;;;13.56;100.00
47670;BME280;33408;52.062;11.722;2022-09-09T04:38:15;100619.19;;;13.67;100.00
47670;BME280;33408;52.062;11.722;2022-09-09T04:40:42;100614.13;;;13.62;100.00
47670;BME280;33408;52.062;11.722;2022-09-09T04:43:10;100607.06;;;13.66;100.00
47670;BME280;33408;52.062;11.722;2022-09-09T04:45:38;100606.81;;;13.74;100.00
47670;BME280;33408;52.062;11.722;2022-09-09T04:48:05;100616.38;;;13.73;100.00
47670;BME280;33408;52.062;11.722;2022-09-09T04:50:32;100607.56;;;13.77;100.00
47670;BME280;33408;52.062;11.722;2022-09-09T04:53:00;100624.06;;;13.76;100.00
47670;BME280;33408;52.062;11.722;2022-09-09T04:55:27;100617.97;;;13.77;100.00
47670;BME280;33408;52.062;11.722;2022-09-09T04:57:54;100621.97;;;13.88;100.00
47670;BME280;33408;52.062;11.722;2022-09-09T05:00:20;100625.25;;;13.94;100.00
47670;BME280;33408;52.062;11.722;2022-09-09T05:02:48;100624.16;;;14.00;100.00
47670;BME280;33408;52.062;11.722;2022-09-09T05:05:15;100622.19;;;14.07;100.00
47670;BME280;33408;52.062;11.722;2022-09-09T05:07:42;100626.00;;;14.21;100.00
47670;BME280;33408;52.062;11.722;2022-09-09T05:10:09;100619.06;;;14.22;100.00
47670;BME280;33408;52.062;11.722;2022-09-09T05:12:35;100620.38;;;14.34;100.00
47670;BME280;33408;52.062;11.722;2022-09-09T05:15:02;100612.44;;;14.37;100.00
47670;BME280;33408;52.062;11.722;2022-09-09T05:17:29;100613.72;;;14.49;100.00
47670;BME280;33408;52.062;11.722;2022-09-09T05:19:57;100615.81;;;14.64;100.00
47670;BME280;33408;52.062;11.722;2022-09-09T05:22:24;100615.44;;;14.75;100.00
47670;BME280;33408;52.062;11.722;2022-09-09T05:24:50;100624.03;;;14.77;100.00
47670;BME280;33408;52.062;11.722;2022-09-09T05:27:17;100625.38;;;14.87;100.00
47670;BME280;33408;52.062;11.722;2022-09-09T05:29:44;100629.03;;;14.83;100.00
47670;BME280;33408;52.062;11.722;2022-09-09T05:32:11;100618.75;;;15.02;100.00
47670;BME280;33408;52.062;11.722;2022-09-09T05:34:38;100617.69;;;15.06;100.00
47670;BME280;33408;52.062;11.722;2022-09-09T05:37:06;100629.56;;;15.15;100.00
47670;BME280;33408;52.062;11.722;2022-09-09T05:39:33;100631.41;;;15.11;100.00
47670;BME280;33408;52.062;11.722;2022-09-09T05:42:01;100620.44;;;15.03;100.00
47670;BME280;33408;52.062;11.722;2022-09-09T05:44:29;100623.34;;;15.18;100.00
47670;BME280;33408;52.062;11.722;2022-09-09T05:46:55;100629.06;;;15.27;100.00
47670;BME280;33408;52.062;11.722;2022-09-09T05:49:23;100641.75;;;15.37;100.00
47670;BME280;33408;52.062;11.722;2022-09-09T05:51:49;100648.50;;;15.42;100.00
47670;BME280;33408;52.062;11.722;2022-09-09T05:54:17;100644.59;;;15.30;100.00
47670;BME280;33408;52.062;11.722;2022-09-09T05:56:44;100640.91;;;15.36;100.00
47670;BME280;33408;52.062;11.722;2022-09-09T05:59:11;100640.41;;;15.48;100.00
47670;BME280;33408;52.062;11.722;2022-09-09T06:01:37;100635.94;;;15.52;100.00
47670;BME280;33408;52.062;11.722;2022-09-09T06:04:05;100637.59;;;15.53;100.00
47670;BME280;33408;52.062;11.722;2022-09-09T06:06:33;100638.81;;;15.66;100.00
47670;BME280;33408;52.062;11.722;2022-09-09T06:09:05;100633.16;;;15.77;100.00
47670;BME280;33408;52.062;11.722;2022-09-09T06:11:37;100635.66;;;15.80;100.00
47670;BME280;33408;52.062;11.722;2022-09-09T06:14:05;100638.47;;;15.96;100.00
47670;BME280;33408;52.062;11.722;2022-09-09T06:16:32;100631.53;;;16.16;100.00
47670;BME280;33408;52.062;11.722;2022-09-09T06:18:59;100631.41;;;16.19;100.00
47670;BME280;33408;52.062;11.722;2022-09-09T06:21:27;100628.84;;;16.38;100.00
47670;BME280;33408;52.062;11.722;2022-09-09T06:23:55;100640.19;;;16.57;100.00
47670;BME280;33408;52.062;11.722;2022-09-09T06:26:23;100630.38;;;16.42;100.00
47670;BME280;33408;52.062;11.722;2022-09-09T06:28:53;100633.75;;;16.46;100.00
47670;BME280;33408;52.062;11.722;2022-09-09T06:31:21;100634.47;;;16.68;100.00
47670;BME280;33408;52.062;11.722;2022-09-09T06:33:49;100638.09;;;16.45;100.00
47670;BME280;33408;52.062;11.722;2022-09-09T06:36:18;100634.47;;;16.68;100.00
47670;BME280;33408;52.062;11.722;2022-09-09T06:38:45;100632.91;;;16.64;100.00
47670;BME280;33408;52.062;11.722;2022-09-09T06:41:13;100628.75;;;16.60;100.00
47670;BME280;33408;52.062;11.722;2022-09-09T06:43:40;100632.81;;;16.47;100.00
47670;BME280;33408;52.062;11.722;2022-09-09T06:46:10;100635.25;;;16.70;100.00
47670;BME280;33408;52.062;11.722;2022-09-09T06:48:38;100631.56;;;16.74;100.00
47670;BME280;33408;52.062;11.722;2022-09-09T06:51:08;100641.97;;;16.76;100.00
47670;BME280;33408;52.062;11.722;2022-09-09T06:53:37;100633.91;;;17.00;100.00
47670;BME280;33408;52.062;11.722;2022-09-09T06:56:18;100643.69;;;16.96;100.00
47670;BME280;33408;52.062;11.722;2022-09-09T06:58:46;100641.28;;;17.10;100.00
47670;BME280;33408;52.062;11.722;2022-09-09T07:01:17;100639.06;;;17.20;100.00
47670;BME280;33408;52.062;11.722;2022-09-09T07:03:46;100639.81;;;17.41;100.00
47670;BME280;33408;52.062;11.722;2022-09-09T07:06:14;100635.81;;;17.69;100.00
47670;BME280;33408;52.062;11.722;2022-09-09T07:08:42;100637.22;;;17.59;100.00
47670;BME280;33408;52.062;11.722;2022-09-09T07:11:09;100631.38;;;17.89;100.00
47670;BME280;33408;52.062;11.722;2022-09-09T07:13:36;100626.06;;;17.73;100.00
47670;BME280;33408;52.062;11.722;2022-09-09T07:16:04;100621.84;;;17.88;100.00
47670;BME280;33408;52.062;11.722;2022-09-09T07:18:33;100624.00;;;17.97;100.00
47670;BME280;33408;52.062;11.722;2022-09-09T07:21:00;100633.19;;;18.39;100.00
47670;BME280;33408;52.062;11.722;2022-09-09T07:23:28;100637.66;;;18.37;100.00
47670;BME280;33408;52.062;11.722;2022-09-09T07:25:55;100635.53;;;18.28;100.00
47670;BME280;33408;52.062;11.722;2022-09-09T07:28:23;100628.34;;;18.14;100.00
47670;BME280;33408;52.062;11.722;2022-09-09T07:30:54;100641.25;;;18.01;100.00
47670;BME280;33408;52.062;11.722;2022-09-09T07:33:21;100635.09;;;18.02;100.00
47670;BME280;33408;52.062;11.722;2022-09-09T07:35:50;100630.09;;;17.97;100.00
47670;BME280;33408;52.062;11.722;2022-09-09T07:38:16;100635.41;;;18.13;100.00
47670;BME280;33408;52.062;11.722;2022-09-09T07:40:44;100642.09;;;18.01;100.00
47670;BME280;33408;52.062;11.722;2022-09-09T07:43:11;100643.25;;;18.13;100.00
47670;BME280;33408;52.062;11.722;2022-09-09T07:45:37;100640.56;;;18.48;100.00
47670;BME280;33408;52.062;11.722;2022-09-09T07:48:05;100640.38;;;18.51;100.00
47670;BME280;33408;52.062;11.722;2022-09-09T07:50:32;100640.59;;;18.64;100.00
47670;BME280;33408;52.062;11.722;2022-09-09T07:53:01;100643.00;;;18.85;100.00
47670;BME280;33408;52.062;11.722;2022-09-09T07:55:30;100648.06;;;18.72;100.00
47670;BME280;33408;52.062;11.722;2022-09-09T07:57:56;100647.03;;;18.58;100.00
47670;BME280;33408;52.062;11.722;2022-09-09T08:00:23;100646.94;;;18.60;100.00
47670;BME280;33408;52.062;11.722;2022-09-09T08:02:50;100651.75;;;18.52;100.00
47670;BME280;33408;52.062;11.722;2022-09-09T08:05:19;100650.97;;;18.50;100.00
47670;BME280;33408;52.062;11.722;2022-09-09T08:07:45;100655.78;;;18.41;100.00
47670;BME280;33408;52.062;11.722;2022-09-09T08:10:13;100655.13;;;18.54;100.00
47670;BME280;33408;52.062;11.722;2022-09-09T08:12:41;100656.41;;;18.47;100.00
47670;BME280;33408;52.062;11.722;2022-09-09T08:15:08;100662.47;;;18.81;100.00
47670;BME280;33408;52.062;11.722;2022-09-09T08:17:34;100653.06;;;18.76;100.00
47670;BME280;33408;52.062;11.722;2022-09-09T08:20:03;100648.38;;;19.15;100.00
47670;BME280;33408;52.062;11.722;2022-09-09T08:22:31;100652.75;;;19.46;100.00
47670;BME280;33408;52.062;11.722;2022-09-09T08:24:58;100642.41;;;19.74;100.00
47670;BME280;33408;52.062;11.722;2022-09-09T08:27:26;100633.59;;;20.05;100.00
47670;BME280;33408;52.062;11.722;2022-09-09T08:29:53;100638.16;;;19.87;100.00
47670;BME280;33408;52.062;11.722;2022-09-09T08:32:21;100644.56;;;19.97;100.00
47670;BME280;33408;52.062;11.722;2022-09-09T08:34:48;100645.53;;;20.11;100.00
47670;BME280;33408;52.062;11.722;2022-09-09T08:37:14;100648.81;;;20.00;100.00
47670;BME280;33408;52.062;11.722;2022-09-09T08:39:41;100648.66;;;20.61;100.00
47670;BME280;33408;52.062;11.722;2022-09-09T08:42:29;100643.84;;;20.82;100.00
47670;BME280;33408;52.062;11.722;2022-09-09T08:45:14;100643.66;;;20.13;100.00
47670;BME280;33408;52.062;11.722;2022-09-09T08:48:06;100642.72;;;20.28;100.00
47670;BME280;33408;52.062;11.722;2022-09-09T08:50:36;100647.25;;;20.84;100.00
47670;BME280;33408;52.062;11.722;2022-09-09T08:53:05;100653.06;;;20.60;99.92
47670;BME280;33408;52.062;11.722;2022-09-09T08:55:41;100659.47;;;20.85;99.60
47670;BME280;33408;52.062;11.722;2022-09-09T08:58:13;100658.88;;;21.08;100.00
47670;BME280;33408;52.062;11.722;2022-09-09T09:00:50;100663.94;;;21.11;100.00
47670;BME280;33408;52.062;11.722;2022-09-09T09:03:23;100651.53;;;20.99;97.56
47670;BME280;33408;52.062;11.722;2022-09-09T09:06:01;100659.22;;;21.17;97.59
47670;BME280;33408;52.062;11.722;2022-09-09T09:08:37;100661.81;;;20.89;95.53
47670;BME280;33408;52.062;11.722;2022-09-09T09:11:06;100664.56;;;20.88;94.81
47670;BME280;33408;52.062;11.722;2022-09-09T09:13:39;100659.28;;;20.73;94.72
47670;BME280;33408;52.062;11.722;2022-09-09T09:16:16;100664.38;;;20.76;96.19
47670;BME280;33408;52.062;11.722;2022-09-09T09:18:44;100665.72;;;20.69;96.94
47670;BME280;33408;52.062;11.722;2022-09-09T09:21:15;100662.78;;;20.88;98.12
47670;BME280;33408;52.062;11.722;2022-09-09T09:23:48;100657.97;;;20.95;96.75
47670;BME280;33408;52.062;11.722;2022-09-09T09:26:17;100662.34;;;21.09;94.52
47670;BME280;33408;52.062;11.722;2022-09-09T09:28:46;100663.78;;;21.00;92.67
47670;BME280;33408;52.062;11.722;2022-09-09T09:31:13;100662.97;;;21.27;95.31
47670;BME280;33408;52.062;11.722;2022-09-09T09:33:46;100660.94;;;21.45;98.34
47670;BME280;33408;52.062;11.722;2022-09-09T09:36:13;100653.69;;;21.07;93.23
47670;BME280;33408;52.062;11.722;2022-09-09T09:38:52;100650.38;;;21.18;94.00
47670;BME280;33408;52.062;11.722;2022-09-09T09:41:29;100663.41;;;21.06;94.83
47670;BME280;33408;52.062;11.722;2022-09-09T09:43:58;100655.50;;;21.06;91.01
47670;BME280;33408;52.062;11.722;2022-09-09T09:46:26;100646.28;;;20.99;95.48
47670;BME280;33408;52.062;11.722;2022-09-09T09:49:00;100649.06;;;21.10;92.66
47670;BME280;33408;52.062;11.722;2022-09-09T09:51:28;100650.63;;;21.27;93.89
47670;BME280;33408;52.062;11.722;2022-09-09T09:54:13;100653.84;;;21.18;93.58
47670;BME280;33408;52.062;11.722;2022-09-09T09:56:42;100655.59;;;21.05;92.62
47670;BME280;33408;52.062;11.722;2022-09-09T09:59:22;100661.91;;;20.88;93.38
47670;BME280;33408;52.062;11.722;2022-09-09T10:01:49;100666.16;;;20.90;96.64
47670;BME280;33408;52.062;11.722;2022-09-09T10:04:18;100662.72;;;21.17;99.14
47670;BME280;33408;52.062;11.722;2022-09-09T10:06:46;100657.31;;;21.60;94.38
47670;BME280;33408;52.062;11.722;2022-09-09T10:09:22;100661.19;;;21.55;92.18
47670;BME280;33408;52.062;11.722;2022-09-09T10:11:55;100657.16;;;21.49;90.37
47670;BME280;33408;52.062;11.722;2022-09-09T10:14:30;100660.78;;;21.34;88.12
47670;BME280;33408;52.062;11.722;2022-09-09T10:17:11;100661.66;;;21.47;89.78
47670;BME280;33408;52.062;11.722;2022-09-09T10:19:48;100654.72;;;21.86;88.71
47670;BME280;33408;52.062;11.722;2022-09-09T10:22:25;100651.16;;;21.87;85.91
47670;BME280;33408;52.062;11.722;2022-09-09T10:25:09;100650.97;;;22.29;86.16
47670;BME280;33408;52.062;11.722;2022-09-09T10:27:49;100649.31;;;22.90;82.47
47670;BME280;33408;52.062;11.722;2022-09-09T10:30:23;100643.59;;;22.97;79.50
47670;BME280;33408;52.062;11.722;2022-09-09T10:32:59;100646.09;;;23.11;81.51
47670;BME280;33408;52.062;11.722;2022-09-09T10:35:33;100639.72;;;22.89;76.38
47670;BME280;33408;52.062;11.722;2022-09-09T10:38:18;100634.75;;;22.85;76.30
47670;BME280;33408;52.062;11.722;2022-09-09T10:41:01;100637.75;;;23.04;77.28
47670;BME280;33408;52.062;11.722;2022-09-09T10:43:52;100641.56;;;23.00;77.33
47670;BME280;33408;52.062;11.722;2022-09-09T10:46:30;100637.63;;;22.69;78.07
47670;BME280;33408;52.062;11.722;2022-09-09T10:49:10;100638.88;;;22.76;80.11
47670;BME280;33408;52.062;11.722;2022-09-09T10:51:46;100626.59;;;22.88;76.96
47670;BME280;33408;52.062;11.722;2022-09-09T10:54:24;100622.28;;;22.74;77.26
47670;BME280;33408;52.062;11.722;2022-09-09T10:56:58;100627.00;;;22.57;78.38
47670;BME280;33408;52.062;11.722;2022-09-09T10:59:27;100623.50;;;22.94;78.07
47670;BME280;33408;52.062;11.722;2022-09-09T11:02:01;100620.44;;;23.24;74.28
47670;BME280;33408;52.062;11.722;2022-09-09T11:04:35;100625.69;;;23.13;69.96
47670;BME280;33408;52.062;11.722;2022-09-09T11:07:08;100628.59;;;23.21;72.04
47670;BME280;33408;52.062;11.722;2022-09-09T11:09:38;100623.69;;;23.52;68.46
47670;BME280;33408;52.062;11.722;2022-09-09T11:12:13;100622.38;;;23.22;67.89
47670;BME280;33408;52.062;11.722;2022-09-09T11:14:43;100621.28;;;23.49;66.64
47670;BME280;33408;52.062;11.722;2022-09-09T11:17:16;100631.94;;;23.72;68.49
47670;BME280;33408;52.062;11.722;2022-09-09T11:19:45;100627.47;;;23.61;66.11
47670;BME280;33408;52.062;11.722;2022-09-09T11:22:21;100624.31;;;23.91;67.84
47670;BME280;33408;52.062;11.722;2022-09-09T11:24:52;100622.97;;;23.85;66.90
47670;BME280;33408;52.062;11.722;2022-09-09T11:27:23;100628.53;;;23.34;66.93
47670;BME280;33408;52.062;11.722;2022-09-09T11:30:04;100620.88;;;22.81;67.82
47670;BME280;33408;52.062;11.722;2022-09-09T11:33:01;100612.06;;;22.69;67.04
47670;BME280;33408;52.062;11.722;2022-09-09T11:35:38;100619.50;;;22.88;67.83
47670;BME280;33408;52.062;11.722;2022-09-09T11:38:25;100620.91;;;23.05;67.90
47670;BME280;33408;52.062;11.722;2022-09-09T11:40:57;100619.88;;;23.32;63.97
47670;BME280;33408;52.062;11.722;2022-09-09T11:43:28;100614.59;;;23.67;63.81
47670;BME280;33408;52.062;11.722;2022-09-09T11:45:59;100618.38;;;23.52;64.36
47670;BME280;33408;52.062;11.722;2022-09-09T11:48:34;100619.25;;;23.53;66.79
47670;BME280;33408;52.062;11.722;2022-09-09T11:51:04;100631.31;;;23.33;66.51
47670;BME280;33408;52.062;11.722;2022-09-09T11:53:33;100624.63;;;22.79;66.38
47670;BME280;33408;52.062;11.722;2022-09-09T11:56:02;100629.84;;;22.54;68.80
47670;BME280;33408;52.062;11.722;2022-09-09T11:58:33;100630.66;;;22.68;69.48
47670;BME280;33408;52.062;11.722;2022-09-09T12:01:13;100623.50;;;22.44;69.29
47670;BME280;33408;52.062;11.722;2022-09-09T12:03:44;100631.41;;;22.57;69.37
47670;BME280;33408;52.062;11.722;2022-09-09T12:06:17;100629.50;;;22.72;69.42
47670;BME280;33408;52.062;11.722;2022-09-09T12:08:51;100622.44;;;22.97;66.51
47670;BME280;33408;52.062;11.722;2022-09-09T12:11:25;100620.19;;;23.03;66.83
47670;BME280;33408;52.062;11.722;2022-09-09T12:13:53;100616.91;;;22.75;66.09
47670;BME280;33408;52.062;11.722;2022-09-09T12:16:34;100616.34;;;22.46;65.79
47670;BME280;33408;52.062;11.722;2022-09-09T12:19:12;100612.28;;;22.66;64.81
47670;BME280;33408;52.062;11.722;2022-09-09T12:21:45;100617.38;;;22.56;65.60
47670;BME280;33408;52.062;11.722;2022-09-09T12:24:20;100630.38;;;22.34;68.47
47670;BME280;33408;52.062;11.722;2022-09-09T12:27:03;100633.22;;;22.05;66.90
47670;BME280;33408;52.062;11.722;2022-09-09T12:29:40;100630.25;;;22.22;67.15
47670;BME280;33408;52.062;11.722;2022-09-09T12:32:11;100623.09;;;22.37;65.77
47670;BME280;33408;52.062;11.722;2022-09-09T12:34:41;100623.97;;;22.38;66.49
47670;BME280;33408;52.062;11.722;2022-09-09T12:37:17;100624.91;;;22.37;66.80
47670;BME280;33408;52.062;11.722;2022-09-09T12:39:47;100631.31;;;22.58;65.35
47670;BME280;33408;52.062;11.722;2022-09-09T12:42:17;100618.22;;;22.94;65.94
47670;BME280;33408;52.062;11.722;2022-09-09T12:44:54;100616.22;;;22.98;64.06
47670;BME280;33408;52.062;11.722;2022-09-09T12:47:25;100620.63;;;23.10;66.04
47670;BME280;33408;52.062;11.722;2022-09-09T12:49:56;100622.22;;;22.63;68.20
47670;BME280;33408;52.062;11.722;2022-09-09T12:52:26;100620.00;;;22.56;71.04